Time;durP1;ratioP1;P1;durP2;ratioP2;P2;SDS_P1;SDS_P2;PMS_P1;PMS_P2;Temp;Humidity;BMP_temperature;BMP_pressure;BME280_temperature;BME280_humidity;BME280_pressure;Samples;Min_cycle;Max_cycle;Signal;HPM_P1;HPM_P2
2023/09/17 00:01:41;;;;;;;7.78;7.07;;;18.10;73.60;;;;;;5052603;28;20082;-69
2023/09/17 00:04:07;;;;;;;7.50;6.65;;;18.10;73.60;;;;;;5050637;28;20041;-70
2023/09/17 00:06:33;;;;;;;6.82;6.13;;;18.10;73.60;;;;;;5056953;28;20629;-69
2023/09/17 00:08:59;;;;;;;6.50;5.90;;;18.10;73.50;;;;;;5061247;28;20032;-70
2023/09/17 00:11:25;;;;;;;7.30;6.68;;;18.00;73.30;;;;;;5053732;28;20388;-69
2023/09/17 00:13:51;;;;;;;8.02;7.22;;;18.00;73.30;;;;;;5055542;28;20032;-68
2023/09/17 00:16:17;;;;;;;11.13;7.50;;;18.00;73.30;;;;;;5054612;28;20037;-69
2023/09/17 00:18:43;;;;;;;8.07;7.38;;;18.00;73.30;;;;;;5059640;28;20086;-69
2023/09/17 00:21:09;;;;;;;7.68;6.95;;;18.00;73.30;;;;;;5058346;28;20032;-72
2023/09/17 00:23:35;;;;;;;8.63;7.65;;;18.00;73.30;;;;;;5058935;28;20070;-71
2023/09/17 00:26:01;;;;;;;7.85;7.10;;;18.00;73.30;;;;;;5056145;28;20035;-71
2023/09/17 00:28:27;;;;;;;8.70;7.90;;;18.00;73.30;;;;;;5054791;28;20314;-74
2023/09/17 00:30:54;;;;;;;8.05;7.32;;;18.00;73.30;;;;;;5045938;28;20036;-71
2023/09/17 00:33:20;;;;;;;8.15;7.18;;;18.00;73.30;;;;;;5055258;28;20518;-70
2023/09/17 00:35:46;;;;;;;7.90;7.20;;;18.00;73.30;;;;;;5056024;28;20433;-71
2023/09/17 00:38:12;;;;;;;9.77;8.77;;;18.00;73.30;;;;;;5057569;28;20055;-71
2023/09/17 00:40:39;;;;;;;8.55;7.75;;;18.00;73.90;;;;;;5059553;28;20037;-71
2023/09/17 00:43:06;;;;;;;10.45;9.25;;;17.90;73.10;;;;;;5057958;28;20424;-71
2023/09/17 00:45:32;;;;;;;9.38;8.48;;;18.00;73.30;;;;;;5054928;28;20064;-70
2023/09/17 00:48:00;;;;;;;9.07;8.30;;;17.90;73.20;;;;;;5055291;28;20456;-71
2023/09/17 00:50:26;;;;;;;10.30;9.23;;;18.00;73.30;;;;;;5049584;28;20037;-71
2023/09/17 00:52:52;;;;;;;9.45;8.63;;;17.90;73.10;;;;;;5058266;28;20020;-71
2023/09/17 00:55:18;;;;;;;9.73;8.70;;;17.90;73.20;;;;;;5057998;28;20016;-70
2023/09/17 00:57:45;;;;;;;10.32;9.23;;;17.90;73.20;;;;;;5054477;28;20308;-71
2023/09/17 01:00:11;;;;;;;11.43;9.32;;;17.90;73.20;;;;;;5051090;28;20032;-70
2023/09/17 01:02:39;;;;;;;11.05;9.93;;;17.90;73.20;;;;;;5059320;28;20032;-71
2023/09/17 01:05:05;;;;;;;11.65;9.70;;;17.90;73.20;;;;;;5059325;28;20044;-71
2023/09/17 01:07:34;;;;;;;10.57;9.55;;;17.90;73.20;;;;;;5060843;28;20123;-72
2023/09/17 01:10:00;;;;;;;10.70;9.23;;;17.90;73.20;;;;;;5057510;28;20614;-70
2023/09/17 01:12:27;;;;;;;10.63;9.73;;;17.90;73.20;;;;;;5062035;28;20039;-71
2023/09/17 01:14:54;;;;;;;10.35;9.57;;;17.90;73.20;;;;;;5060032;28;20086;-71
2023/09/17 01:17:22;;;;;;;10.40;9.40;;;17.90;73.20;;;;;;5058451;28;20180;-71
2023/09/17 01:19:48;;;;;;;10.85;9.77;;;17.90;73.20;;;;;;5059564;28;20349;-70
2023/09/17 01:22:29;;;;;;;10.45;9.48;;;17.90;73.30;;;;;;5058182;28;20375;-72
2023/09/17 01:25:07;;;;;;;12.23;10.95;;;17.90;73.30;;;;;;5045553;28;20174;-71
2023/09/17 01:27:36;;;;;;;10.95;9.85;;;17.90;73.30;;;;;;5060635;28;20037;-71
2023/09/17 01:30:15;;;;;;;11.07;9.95;;;17.90;73.30;;;;;;5053722;28;20037;-74
2023/09/17 01:32:42;;;;;;;11.45;10.40;;;17.90;73.30;;;;;;5058691;28;20101;-72
2023/09/17 01:35:14;;;;;;;10.55;9.45;;;17.90;73.30;;;;;;5056356;28;20032;-71
2023/09/17 01:37:46;;;;;;;12.00;10.80;;;17.90;73.40;;;;;;5062275;28;20111;-75
2023/09/17 01:40:12;;;;;;;;;;;17.90;73.40;;;;;;5064235;28;20035;-72
2023/09/17 01:42:40;;;;;;;11.30;10.30;;;17.90;73.40;;;;;;5058194;28;19920;-71
2023/09/17 01:45:09;;;;;;;12.82;11.18;;;17.90;73.30;;;;;;5060342;28;20040;-70
2023/09/17 01:47:36;;;;;;;12.23;10.95;;;17.80;73.20;;;;;;5055664;28;20385;-73
2023/09/17 01:50:04;;;;;;;12.82;11.57;;;17.80;73.30;;;;;;5057389;28;20480;-74
2023/09/17 01:52:32;;;;;;;11.93;10.93;;;17.80;73.30;;;;;;5053580;28;20024;-74
2023/09/17 01:55:02;;;;;;;12.88;11.50;;;17.80;73.40;;;;;;5055395;28;20059;-70
2023/09/17 01:57:28;;;;;;;13.35;12.00;;;17.80;73.40;;;;;;5061009;28;20032;-69
2023/09/17 01:59:54;;;;;;;13.20;11.88;;;17.80;73.40;;;;;;5061123;28;20047;-72
2023/09/17 02:02:21;;;;;;;12.32;11.18;;;17.80;73.50;;;;;;5059858;28;20123;-70
2023/09/17 02:04:48;;;;;;;11.73;10.73;;;17.80;73.50;;;;;;5060459;28;20039;-70
2023/09/17 02:07:17;;;;;;;12.20;10.98;;;17.70;73.30;;;;;;5062992;28;20032;-69
2023/09/17 02:09:43;;;;;;;12.93;11.73;;;17.70;73.40;;;;;;5062126;28;20484;-70
2023/09/17 02:12:09;;;;;;;13.20;12.02;;;17.70;73.40;;;;;;5048380;28;20058;-72
2023/09/17 02:14:35;;;;;;;12.57;11.38;;;17.70;73.40;;;;;;5055734;28;20068;-71
2023/09/17 02:17:03;;;;;;;13.65;12.35;;;17.70;73.50;;;;;;5055077;28;20429;-70
2023/09/17 02:19:29;;;;;;;13.80;12.45;;;17.70;73.50;;;;;;5055260;28;20450;-70
2023/09/17 02:21:54;;;;;;;13.80;12.50;;;17.70;73.50;;;;;;5051582;28;20039;-71
2023/09/17 02:24:21;;;;;;;13.98;12.60;;;17.70;73.50;;;;;;5056903;28;20123;-70
2023/09/17 02:26:47;;;;;;;13.70;12.40;;;17.70;73.50;;;;;;5052078;28;20108;-70
2023/09/17 02:29:13;;;;;;;15.07;13.60;;;17.70;73.60;;;;;;5050722;28;20039;-70
2023/09/17 02:31:39;;;;;;;13.20;11.95;;;17.70;73.60;;;;;;5056784;28;20040;-70
2023/09/17 02:34:05;;;;;;;13.57;12.18;;;17.70;73.60;;;;;;5054023;28;20094;-69
2023/09/17 02:36:31;;;;;;;13.48;12.23;;;17.70;73.60;;;;;;5053782;28;21023;-72
2023/09/17 02:38:57;;;;;;;13.85;12.63;;;17.70;73.60;;;;;;5051095;28;20079;-71
2023/09/17 02:41:23;;;;;;;14.98;13.55;;;17.70;73.70;;;;;;5054078;28;20259;-71
2023/09/17 02:43:49;;;;;;;14.38;13.07;;;17.70;73.70;;;;;;5051933;28;20492;-71
2023/09/17 02:46:21;;;;;;;13.37;12.10;;;17.70;73.70;;;;;;5053191;28;20024;-70
2023/09/17 02:48:47;;;;;;;14.98;13.45;;;17.70;73.70;;;;;;5056689;28;20284;-72
2023/09/17 02:51:13;;;;;;;13.82;12.57;;;17.70;73.70;;;;;;5055379;28;20074;-70
2023/09/17 02:53:39;;;;;;;15.25;13.90;;;17.70;73.70;;;;;;5054588;28;20028;-70
2023/09/17 02:56:05;;;;;;;14.98;13.57;;;17.70;73.80;;;;;;5051336;28;20116;-70
2023/09/17 02:58:31;;;;;;;14.30;13.05;;;17.70;73.80;;;;;;5054729;28;20502;-74
2023/09/17 03:00:57;;;;;;;14.45;13.13;;;17.70;73.80;;;;;;5049832;28;20059;-71
2023/09/17 03:03:23;;;;;;;15.00;13.60;;;17.60;73.60;;;;;;5052749;28;20071;-71
2023/09/17 03:05:49;;;;;;;15.27;13.25;;;17.60;73.70;;;;;;5058025;28;20410;-72
2023/09/17 03:08:15;;;;;;;14.07;12.88;;;17.60;73.70;;;;;;5053468;28;20038;-72
2023/09/17 03:10:45;;;;;;;15.13;13.57;;;17.60;73.70;;;;;;5055220;28;20082;-71
2023/09/17 03:13:14;;;;;;;14.98;13.52;;;17.60;73.80;;;;;;5049481;28;20479;-74
2023/09/17 03:15:42;;;;;;;16.17;14.43;;;17.60;73.80;;;;;;5052662;28;20598;-74
2023/09/17 03:18:10;;;;;;;15.95;14.50;;;17.60;73.80;;;;;;5056006;28;20149;-74
2023/09/17 03:20:37;;;;;;;14.30;13.02;;;17.60;73.80;;;;;;5052452;28;20037;-71
2023/09/17 03:23:04;;;;;;;14.20;12.85;;;17.60;73.90;;;;;;5057123;28;20036;-71
2023/09/17 03:25:31;;;;;;;14.60;13.15;;;17.60;73.90;;;;;;5036442;28;20041;-74
2023/09/17 03:28:01;;;;;;;15.30;13.82;;;17.60;73.90;;;;;;5057781;28;20527;-70
2023/09/17 03:30:29;;;;;;;14.85;13.55;;;17.50;73.80;;;;;;5056592;28;20446;-72
2023/09/17 03:32:57;;;;;;;15.00;13.30;;;17.50;73.80;;;;;;5039316;28;20448;-71
2023/09/17 03:35:24;;;;;;;15.90;14.52;;;17.60;74.00;;;;;;5042227;28;20272;-71
2023/09/17 03:37:51;;;;;;;16.25;14.70;;;17.50;73.80;;;;;;5051800;28;20041;-71
2023/09/17 03:40:17;;;;;;;15.85;14.35;;;17.50;73.80;;;;;;5050804;28;20268;-70
2023/09/17 03:42:43;;;;;;;16.13;14.70;;;17.50;73.90;;;;;;5053100;28;20033;-71
2023/09/17 03:45:13;;;;;;;16.13;14.57;;;17.50;73.90;;;;;;5056584;28;20263;-69
2023/09/17 03:47:43;;;;;;;15.57;14.18;;;17.50;73.90;;;;;;5056773;28;20094;-68
2023/09/17 03:50:13;;;;;;;15.98;14.48;;;17.50;73.90;;;;;;5056376;28;20068;-71
2023/09/17 03:52:42;;;;;;;16.10;14.43;;;17.50;73.90;;;;;;5056853;28;20028;-69
2023/09/17 03:55:09;;;;;;;16.25;14.65;;;17.50;73.90;;;;;;5051756;28;20029;-69
2023/09/17 03:57:37;;;;;;;15.80;14.38;;;17.50;73.90;;;;;;5055524;28;20036;-68
2023/09/17 04:00:12;;;;;;;16.48;14.95;;;17.50;74.00;;;;;;5051710;28;20255;-69
2023/09/17 04:02:39;;;;;;;15.45;14.05;;;17.50;74.00;;;;;;5048634;28;20021;-69
2023/09/17 04:05:13;;;;;;;16.35;14.80;;;17.50;74.00;;;;;;5056148;28;20033;-69
2023/09/17 04:07:45;;;;;;;15.85;14.48;;;17.50;74.00;;;;;;5053200;28;20032;-69
2023/09/17 04:10:13;;;;;;;15.55;14.10;;;17.50;74.00;;;;;;5055771;28;20044;-72
2023/09/17 04:12:41;;;;;;;17.65;15.45;;;17.50;74.00;;;;;;5057857;28;20016;-69
2023/09/17 04:15:13;;;;;;;24.63;15.65;;;17.50;74.00;;;;;;5051442;28;20076;-70
2023/09/17 04:17:39;;;;;;;17.50;15.73;;;17.50;74.10;;;;;;5060281;28;20492;-72
2023/09/17 04:20:18;;;;;;;16.75;15.25;;;17.50;74.10;;;;;;5050127;28;20120;-70
2023/09/17 04:22:48;;;;;;;16.80;15.10;;;17.50;74.10;;;;;;5052074;28;20438;-69
2023/09/17 04:25:17;;;;;;;17.17;15.52;;;17.50;74.10;;;;;;5049813;28;20111;-77
2023/09/17 04:27:44;;;;;;;18.88;16.90;;;17.50;74.20;;;;;;5065272;28;20029;-72
2023/09/17 04:30:16;;;;;;;16.73;15.05;;;17.40;74.00;;;;;;5056981;28;20401;-71
2023/09/17 04:32:44;;;;;;;16.83;15.32;;;17.40;74.10;;;;;;5050047;28;20044;-71
2023/09/17 04:35:15;;;;;;;17.25;15.65;;;17.40;74.10;;;;;;5058787;28;20101;-70
2023/09/17 04:37:44;;;;;;;17.57;15.77;;;17.40;74.10;;;;;;5056108;28;20076;-70
2023/09/17 04:40:11;;;;;;;17.95;15.90;;;17.40;74.10;;;;;;5057542;28;20055;-70
2023/09/17 04:42:43;;;;;;;17.33;15.65;;;17.40;74.10;;;;;;5054587;28;20132;-73
2023/09/17 04:45:11;;;;;;;18.58;16.77;;;17.40;74.20;;;;;;5053175;28;20373;-70
2023/09/17 04:47:38;;;;;;;17.40;15.77;;;17.40;74.20;;;;;;5056065;28;20041;-68
2023/09/17 04:50:12;;;;;;;18.25;16.50;;;17.40;74.20;;;;;;5061434;28;20331;-70
2023/09/17 04:52:38;;;;;;;17.23;15.63;;;17.40;74.20;;;;;;5058769;28;20044;-72
2023/09/17 04:55:05;;;;;;;17.63;15.90;;;17.40;74.20;;;;;;5040018;28;20036;-69
2023/09/17 04:57:33;;;;;;;18.60;16.73;;;17.40;74.30;;;;;;5058878;28;20115;-72
2023/09/17 05:00:07;;;;;;;18.05;16.45;;;17.40;74.20;;;;;;5055382;28;20032;-71
2023/09/17 05:02:34;;;;;;;18.40;16.65;;;17.40;74.80;;;;;;5056803;28;20397;-69
2023/09/17 05:05:00;;;;;;;18.23;16.50;;;17.40;74.30;;;;;;5056916;28;20029;-70
2023/09/17 05:07:26;;;;;;;18.00;16.40;;;17.40;74.30;;;;;;5055189;28;20032;-70
2023/09/17 05:09:52;;;;;;;17.63;15.77;;;17.40;74.30;;;;;;5054992;28;20036;-70
2023/09/17 05:12:18;;;;;;;17.90;16.05;;;17.40;74.30;;;;;;5074259;28;20032;-70
2023/09/17 05:14:45;;;;;;;17.42;15.75;;;17.40;74.40;;;;;;5053871;28;20266;-70
2023/09/17 05:17:13;;;;;;;17.05;15.35;;;17.40;74.40;;;;;;5056330;28;20079;-71
2023/09/17 05:19:39;;;;;;;19.00;17.00;;;17.40;74.40;;;;;;5053123;28;20036;-69
2023/09/17 05:22:06;;;;;;;18.00;16.15;;;17.40;74.50;;;;;;5054097;28;20044;-69
2023/09/17 05:24:32;;;;;;;18.85;17.05;;;17.40;74.50;;;;;;5053967;28;20048;-71
2023/09/17 05:26:58;;;;;;;16.83;15.23;;;17.30;74.30;;;;;;5063335;28;20294;-69
2023/09/17 05:29:24;;;;;;;17.15;15.55;;;17.30;74.40;;;;;;5054550;28;20040;-70
2023/09/17 05:31:50;;;;;;;18.30;16.45;;;17.30;74.80;;;;;;5060740;28;20031;-69
2023/09/17 05:34:19;;;;;;;17.15;15.50;;;17.30;74.40;;;;;;5060299;28;20036;-70
2023/09/17 05:36:45;;;;;;;16.50;14.98;;;17.30;74.40;;;;;;5057724;28;20380;-73
2023/09/17 05:39:11;;;;;;;17.52;15.82;;;17.30;74.40;;;;;;5059466;28;20053;-71
2023/09/17 05:41:39;;;;;;;17.80;15.95;;;17.30;74.40;;;;;;5061361;28;20519;-72
2023/09/17 05:44:05;;;;;;;18.08;16.20;;;17.30;74.50;;;;;;5059508;28;20056;-71
2023/09/17 05:46:32;;;;;;;17.23;15.63;;;17.30;75.00;;;;;;5059562;28;20086;-71
2023/09/17 05:48:58;;;;;;;17.50;15.70;;;17.30;74.40;;;;;;5054409;28;20068;-71
2023/09/17 05:51:24;;;;;;;17.40;15.70;;;17.30;74.50;;;;;;5049350;28;20033;-73
2023/09/17 05:53:50;;;;;;;16.55;14.95;;;17.30;74.50;;;;;;5039428;28;20048;-70
2023/09/17 05:56:16;;;;;;;15.90;14.40;;;17.30;74.50;;;;;;5053366;28;20085;-70
2023/09/17 05:58:43;;;;;;;17.55;15.68;;;17.40;74.70;;;;;;5072410;28;20028;-70
2023/09/17 06:01:10;;;;;;;17.63;15.82;;;17.30;74.50;;;;;;5056850;28;20074;-70
2023/09/17 06:03:36;;;;;;;17.00;15.30;;;17.40;74.70;;;;;;5059616;28;20082;-71
2023/09/17 06:06:03;;;;;;;16.45;14.85;;;17.40;74.70;;;;;;5057180;28;20438;-72
2023/09/17 06:08:29;;;;;;;18.90;17.08;;;17.40;74.70;;;;;;5060645;28;20106;-70
2023/09/17 06:10:55;;;;;;;16.85;15.15;;;17.40;74.60;;;;;;5057469;28;20029;-70
2023/09/17 06:13:23;;;;;;;20.88;17.08;;;17.40;74.70;;;;;;5060481;28;20508;-70
2023/09/17 06:15:49;;;;;;;18.67;16.88;;;17.40;74.70;;;;;;5058723;28;20066;-68
2023/09/17 06:18:17;;;;;;;17.58;15.70;;;17.40;74.70;;;;;;5058512;28;20093;-68
2023/09/17 06:20:43;;;;;;;17.95;16.25;;;17.50;74.90;;;;;;5059457;28;20161;-69
2023/09/17 06:23:09;;;;;;;19.75;17.63;;;17.40;74.70;;;;;;5061190;28;20036;-69
2023/09/17 06:25:36;;;;;;;18.90;17.00;;;17.50;74.90;;;;;;5058516;28;20051;-68
2023/09/17 06:28:03;;;;;;;21.25;17.70;;;17.50;75.00;;;;;;5055690;28;20025;-68
2023/09/17 06:30:29;;;;;;;17.73;15.52;;;17.50;75.00;;;;;;5054440;28;20476;-68
2023/09/17 06:32:55;;;;;;;18.63;16.58;;;17.50;75.00;;;;;;5059153;28;20028;-67
2023/09/17 06:35:24;;;;;;;18.83;16.40;;;17.50;75.00;;;;;;5055192;28;20095;-70
2023/09/17 06:37:50;;;;;;;18.58;16.17;;;17.50;75.00;;;;;;5058857;28;20118;-71
2023/09/17 06:40:17;;;;;;;18.10;16.30;;;17.50;75.00;;;;;;5059248;28;20040;-70
2023/09/17 06:42:44;;;;;;;19.65;16.75;;;17.50;75.00;;;;;;5071293;28;20536;-70
2023/09/17 06:45:11;;;;;;;19.02;16.70;;;17.50;75.00;;;;;;5060154;28;20051;-71
2023/09/17 06:47:37;;;;;;;16.67;14.68;;;17.60;75.20;;;;;;5060185;28;20164;-70
2023/09/17 06:50:04;;;;;;;18.52;16.70;;;17.60;75.30;;;;;;5046860;28;20108;-70
2023/09/17 06:52:29;;;;;;;19.65;17.65;;;17.70;75.70;;;;;;5058216;28;20033;-69
2023/09/17 06:54:55;;;;;;;17.17;15.43;;;17.70;75.70;;;;;;5058686;28;20512;-70
2023/09/17 06:57:31;;;;;;;18.73;16.77;;;17.80;75.80;;;;;;5056634;28;20029;-70
2023/09/17 06:59:57;;;;;;;20.85;18.65;;;17.90;75.90;;;;;;5057761;28;20038;-70
2023/09/17 07:02:24;;;;;;;18.90;16.90;;;17.90;75.90;;;;;;5056420;28;20358;-70
2023/09/17 07:04:50;;;;;;;21.65;17.55;;;17.90;75.80;;;;;;5054895;28;20040;-70
2023/09/17 07:07:16;;;;;;;17.50;15.52;;;18.00;76.00;;;;;;5049339;28;20349;-68
2023/09/17 07:09:43;;;;;;;18.33;16.08;;;18.10;76.30;;;;;;5057539;28;20371;-69
2023/09/17 07:12:08;;;;;;;17.80;15.20;;;18.20;77.30;;;;;;5056704;28;20028;-70
2023/09/17 07:14:35;;;;;;;19.50;16.15;;;18.30;76.90;;;;;;5059237;28;20042;-70
2023/09/17 07:17:00;;;;;;;19.45;17.38;;;18.40;77.00;;;;;;5053797;28;20123;-70
2023/09/17 07:19:27;;;;;;;20.38;16.40;;;18.50;77.00;;;;;;5054911;28;20119;-70
2023/09/17 07:21:53;;;;;;;19.40;16.95;;;18.60;77.00;;;;;;5056690;28;20029;-72
2023/09/17 07:24:19;;;;;;;18.90;16.88;;;18.60;77.00;;;;;;5053708;28;20040;-71
2023/09/17 07:26:45;;;;;;;21.30;18.00;;;18.60;76.90;;;;;;5058809;28;20016;-70
2023/09/17 07:29:12;;;;;;;19.27;17.27;;;18.60;76.80;;;;;;5054087;28;20125;-69
2023/09/17 07:31:41;;;;;;;17.80;15.93;;;18.70;76.90;;;;;;5055099;28;20263;-71
2023/09/17 07:34:07;;;;;;;21.58;18.15;;;18.70;76.90;;;;;;5057153;28;20043;-69
2023/09/17 07:36:33;;;;;;;21.08;18.60;;;18.70;76.80;;;;;;5056075;28;20511;-69
2023/09/17 07:38:59;;;;;;;19.85;17.85;;;18.70;76.70;;;;;;5058560;28;20056;-69
2023/09/17 07:41:28;;;;;;;22.02;19.15;;;18.70;76.70;;;;;;5055822;28;20477;-69
2023/09/17 07:43:55;;;;;;;19.63;17.52;;;18.80;76.80;;;;;;5057632;28;20058;-70
2023/09/17 07:46:22;;;;;;;19.80;17.50;;;18.80;76.70;;;;;;5056763;28;20075;-70
2023/09/17 07:48:49;;;;;;;20.55;18.15;;;18.90;76.70;;;;;;5057042;28;20115;-69
2023/09/17 07:51:16;;;;;;;18.95;17.05;;;18.90;76.60;;;;;;5058658;28;20569;-70
2023/09/17 07:53:42;;;;;;;20.05;17.95;;;19.00;76.50;;;;;;5056199;28;20182;-69
2023/09/17 07:56:08;;;;;;;18.98;17.08;;;19.10;76.40;;;;;;5055181;28;20032;-69
2023/09/17 07:58:34;;;;;;;20.80;18.70;;;19.20;76.30;;;;;;5055309;28;20032;-69
2023/09/17 08:00:59;;;;;;;21.25;19.05;;;19.30;76.30;;;;;;5053556;28;20031;-69
2023/09/17 08:03:31;;;;;;;20.03;17.97;;;19.40;76.20;;;;;;5056831;28;20398;-70
2023/09/17 08:05:57;;;;;;;19.85;17.88;;;19.50;76.10;;;;;;5057828;28;20067;-70
2023/09/17 08:08:24;;;;;;;18.92;16.60;;;19.60;76.00;;;;;;5057737;28;20094;-69
2023/09/17 08:10:50;;;;;;;21.42;18.05;;;19.60;75.80;;;;;;5053618;28;20028;-73
2023/09/17 08:13:16;;;;;;;19.05;17.17;;;19.80;76.00;;;;;;5057569;28;20110;-70
2023/09/17 08:15:43;;;;;;;20.67;17.17;;;19.80;75.80;;;;;;5054554;28;20051;-69
2023/09/17 08:18:09;;;;;;;19.05;16.92;;;19.90;75.80;;;;;;5056474;28;20068;-71
2023/09/17 08:20:36;;;;;;;19.15;17.20;;;19.90;75.60;;;;;;5057219;28;20744;-70
2023/09/17 08:23:03;;;;;;;17.85;16.13;;;20.00;75.60;;;;;;5055424;28;20676;-71
2023/09/17 08:25:30;;;;;;;20.63;16.85;;;20.10;75.60;;;;;;5057428;28;20036;-69
2023/09/17 08:27:56;;;;;;;19.08;17.38;;;20.10;75.50;;;;;;5057250;28;20472;-69
2023/09/17 08:30:22;;;;;;;20.67;18.52;;;20.10;75.30;;;;;;5055238;28;20031;-69
2023/09/17 08:32:48;;;;;;;20.02;17.10;;;20.10;75.20;;;;;;5057153;28;20051;-69
2023/09/17 08:35:14;;;;;;;19.38;17.33;;;20.10;75.10;;;;;;5051415;28;20039;-70
2023/09/17 08:37:44;;;;;;;19.45;17.33;;;20.20;75.30;;;;;;5059760;28;20129;-69
2023/09/17 08:40:17;;;;;;;19.90;17.88;;;20.10;75.10;;;;;;5058186;28;20520;-69
2023/09/17 08:42:45;;;;;;;19.00;16.70;;;20.10;75.10;;;;;;5056594;28;20072;-70
2023/09/17 08:45:13;;;;;;;19.27;17.45;;;20.10;75.10;;;;;;5054847;28;20045;-70
2023/09/17 08:47:39;;;;;;;19.13;17.23;;;20.10;75.10;;;;;;5057561;28;20102;-69
2023/09/17 08:50:10;;;;;;;19.92;17.52;;;20.10;75.10;;;;;;5055016;28;20040;-69
2023/09/17 08:52:46;;;;;;;18.75;16.75;;;20.10;75.00;;;;;;5053471;28;20078;-71
2023/09/17 08:55:14;;;;;;;18.92;16.90;;;20.20;75.10;;;;;;5055584;28;20036;-69
2023/09/17 08:57:47;;;;;;;23.38;18.67;;;20.20;75.00;;;;;;5061596;28;20551;-69
2023/09/17 09:00:17;;;;;;;28.95;21.05;;;20.30;75.00;;;;;;5053128;28;20033;-69
2023/09/17 09:02:52;;;;;;;38.20;24.02;;;20.30;75.00;;;;;;5057107;28;20055;-70
2023/09/17 09:05:22;;;;;;;32.53;23.23;;;20.40;75.20;;;;;;5055103;28;20103;-70
2023/09/17 09:07:49;;;;;;;30.83;20.88;;;20.40;75.30;;;;;;5054381;28;20750;-71
2023/09/17 09:10:18;;;;;;;28.80;22.55;;;20.50;75.40;;;;;;5057111;28;20037;-71
2023/09/17 09:12:45;;;;;;;28.63;20.77;;;20.50;75.30;;;;;;5054024;28;20029;-70
2023/09/17 09:15:14;;;;;;;27.83;21.17;;;20.60;75.30;;;;;;5056780;28;20071;-70
2023/09/17 09:17:40;;;;;;;32.22;21.35;;;20.60;75.20;;;;;;5055454;28;20035;-70
2023/09/17 09:20:14;;;;;;;27.92;22.35;;;20.60;75.10;;;;;;5058800;28;20033;-70
2023/09/17 09:22:40;;;;;;;30.00;21.85;;;20.60;75.00;;;;;;5051464;28;20078;-70
2023/09/17 09:25:12;;;;;;;27.20;21.58;;;20.70;75.20;;;;;;5060455;28;20036;-72
2023/09/17 09:27:41;;;;;;;24.17;19.77;;;20.70;75.10;;;;;;5058955;28;20593;-70
2023/09/17 09:30:11;;;;;;;24.63;20.48;;;20.70;75.00;;;;;;5053110;28;20037;-70
2023/09/17 09:32:38;;;;;;;21.63;19.38;;;20.70;74.90;;;;;;5056613;28;20179;-70
2023/09/17 09:35:06;;;;;;;33.95;22.02;;;20.80;75.00;;;;;;5057120;28;20514;-70
2023/09/17 09:37:34;;;;;;;23.02;19.30;;;20.80;74.90;;;;;;5060081;28;20063;-69
2023/09/17 09:40:01;;;;;;;25.65;19.77;;;20.90;74.90;;;;;;5053489;28;20029;-70
2023/09/17 09:42:27;;;;;;;22.70;20.30;;;20.90;74.80;;;;;;5059537;28;20043;-69
2023/09/17 09:44:54;;;;;;;23.10;20.48;;;21.00;74.90;;;;;;5055204;28;20037;-68
2023/09/17 09:47:25;;;;;;;23.17;19.15;;;21.00;74.70;;;;;;5057803;28;20025;-71
2023/09/17 09:49:53;;;;;;;25.23;20.25;;;21.10;74.80;;;;;;5060360;28;20029;-70
2023/09/17 09:52:21;;;;;;;22.50;19.58;;;21.10;74.60;;;;;;5058448;28;20029;-70
2023/09/17 09:54:47;;;;;;;21.83;19.52;;;21.20;74.60;;;;;;5060743;28;20028;-70
2023/09/17 09:57:19;;;;;;;20.40;18.23;;;21.20;74.50;;;;;;5055151;28;20029;-70
2023/09/17 09:59:50;;;;;;;21.25;19.15;;;21.20;74.40;;;;;;5057836;28;20399;-70
2023/09/17 10:02:20;;;;;;;22.17;19.88;;;21.30;74.30;;;;;;5054501;28;20040;-71
2023/09/17 10:04:46;;;;;;;24.23;20.23;;;21.30;74.70;;;;;;5052467;28;20395;-70
2023/09/17 10:07:16;;;;;;;24.52;20.08;;;21.40;74.30;;;;;;5061296;28;20032;-70
2023/09/17 10:09:43;;;;;;;27.25;20.83;;;21.30;74.00;;;;;;5054776;28;20068;-71
2023/09/17 10:12:09;;;;;;;21.63;19.33;;;21.40;74.10;;;;;;5058914;28;20079;-71
2023/09/17 10:14:37;;;;;;;21.83;19.00;;;21.40;74.10;;;;;;5055600;28;20033;-71
2023/09/17 10:17:06;;;;;;;21.35;19.08;;;21.40;74.10;;;;;;5056885;28;20024;-72
2023/09/17 10:19:34;;;;;;;22.65;19.05;;;21.40;74.10;;;;;;5058917;28;20040;-70
2023/09/17 10:22:03;;;;;;;19.70;17.70;;;21.40;74.10;;;;;;5062762;28;20058;-71
2023/09/17 10:24:30;;;;;;;20.13;17.88;;;21.30;73.90;;;;;;5062926;28;20044;-71
2023/09/17 10:27:00;;;;;;;21.15;19.05;;;21.30;74.00;;;;;;5054294;28;20192;-71
2023/09/17 10:29:27;;;;;;;22.52;19.33;;;21.30;74.10;;;;;;5063242;28;20067;-72
2023/09/17 10:31:58;;;;;;;31.33;18.50;;;21.20;74.00;;;;;;5055502;28;20510;-70
2023/09/17 10:34:27;;;;;;;21.20;18.33;;;21.20;74.10;;;;;;5054638;28;20041;-70
2023/09/17 10:36:54;;;;;;;19.80;17.67;;;21.20;74.20;;;;;;5056526;28;20032;-71
2023/09/17 10:39:25;;;;;;;21.67;18.50;;;21.10;74.10;;;;;;5060986;28;20123;-70
2023/09/17 10:41:52;;;;;;;20.80;18.60;;;21.10;74.10;;;;;;5058477;28;20024;-70
2023/09/17 10:44:21;;;;;;;21.10;18.98;;;21.10;74.20;;;;;;5059014;28;20545;-70
2023/09/17 10:46:48;;;;;;;21.60;19.40;;;21.00;74.20;;;;;;5052611;28;20043;-71
2023/09/17 10:49:17;;;;;;;19.38;17.35;;;20.90;74.10;;;;;;5050057;28;20025;-70
2023/09/17 10:51:45;;;;;;;24.67;19.52;;;20.90;74.20;;;;;;5059402;28;20542;-71
2023/09/17 10:54:12;;;;;;;20.38;18.27;;;20.90;74.40;;;;;;5054970;28;20059;-71
2023/09/17 10:56:42;;;;;;;21.88;19.42;;;20.80;74.30;;;;;;5055775;28;20633;-70
2023/09/17 10:59:14;;;;;;;23.45;20.63;;;20.80;74.50;;;;;;5061060;28;20032;-70
2023/09/17 11:01:41;;;;;;;24.52;19.02;;;20.80;74.60;;;;;;5057502;28;20484;-70
2023/09/17 11:04:16;;;;;;;22.90;20.50;;;20.70;74.60;;;;;;5055381;28;20052;-70
2023/09/17 11:06:44;;;;;;;21.90;19.58;;;20.70;74.80;;;;;;5057005;28;20132;-70
2023/09/17 11:09:11;;;;;;;22.50;20.27;;;20.70;74.90;;;;;;5054731;28;20035;-70
2023/09/17 11:11:37;;;;;;;22.25;20.00;;;20.60;74.80;;;;;;5050261;28;20055;-71
2023/09/17 11:14:04;;;;;;;20.88;18.67;;;20.60;75.00;;;;;;5049210;28;20024;-71
2023/09/17 11:16:34;;;;;;;20.45;18.33;;;20.60;75.10;;;;;;5056942;28;20031;-70
2023/09/17 11:19:20;;;;;;;21.30;18.23;;;20.50;75.20;;;;;;5057604;28;20044;-70
2023/09/17 11:22:11;;;;;;;19.70;17.73;;;20.40;75.60;;;;;;5055869;28;20024;-70
2023/09/17 11:24:38;;;;;;;20.83;18.70;;;20.40;75.70;;;;;;5052794;28;20057;-70
2023/09/17 11:27:12;;;;;;;21.13;18.52;;;20.50;76.00;;;;;;5057722;28;20039;-70
2023/09/17 11:29:40;;;;;;;23.88;21.40;;;20.40;76.00;;;;;;5058955;28;20285;-70
2023/09/17 11:32:07;;;;;;;22.83;20.05;;;20.30;76.00;;;;;;5057082;28;20036;-70
2023/09/17 11:34:41;;;;;;;23.70;21.48;;;20.30;76.30;;;;;;5059336;28;20033;-71
2023/09/17 11:37:08;;;;;;;23.90;21.50;;;20.30;76.60;;;;;;5056475;28;20025;-70
2023/09/17 11:39:35;;;;;;;23.17;21.13;;;20.20;76.60;;;;;;5058385;28;20037;-70
2023/09/17 11:42:03;;;;;;;21.88;19.80;;;20.20;76.80;;;;;;5057412;28;20035;-70
2023/09/17 11:44:32;;;;;;;22.50;20.25;;;20.20;77.00;;;;;;5052497;28;20045;-70
2023/09/17 11:46:59;;;;;;;23.48;20.83;;;20.20;77.20;;;;;;5055242;28;20028;-70
2023/09/17 11:49:25;;;;;;;24.25;21.95;;;20.20;77.40;;;;;;5055927;28;20048;-71
2023/09/17 11:51:53;;;;;;;23.25;20.85;;;20.20;77.50;;;;;;5060027;28;20028;-70
2023/09/17 11:54:21;;;;;;;23.63;21.33;;;20.20;77.60;;;;;;5054513;28;20040;-70
2023/09/17 11:56:52;;;;;;;22.63;20.42;;;20.20;77.70;;;;;;5056614;28;20058;-70
2023/09/17 11:59:19;;;;;;;22.33;20.33;;;20.20;77.70;;;;;;5058513;28;20415;-70
2023/09/17 12:01:57;;;;;;;22.92;20.77;;;20.20;77.80;;;;;;5051278;28;20107;-70
2023/09/17 12:04:30;;;;;;;26.67;21.00;;;20.10;77.70;;;;;;5053932;28;21148;-70
2023/09/17 12:06:58;;;;;;;26.67;23.60;;;20.10;77.70;;;;;;5059215;28;20479;-70
2023/09/17 12:12:05;;;;;;;24.20;21.77;;;20.10;77.90;;;;;;5056686;28;20551;-70
2023/09/17 12:14:35;;;;;;;24.90;22.33;;;20.10;78.00;;;;;;5057053;28;20028;-70
2023/09/17 12:17:02;;;;;;;23.58;21.27;;;20.00;78.00;;;;;;5058702;28;20120;-70
2023/09/17 12:19:34;;;;;;;23.02;20.27;;;20.00;78.10;;;;;;5059254;28;20024;-70
2023/09/17 12:22:01;;;;;;;26.73;23.85;;;20.00;78.20;;;;;;5057593;28;20379;-70
2023/09/17 12:24:41;;;;;;;25.90;23.40;;;20.00;78.30;;;;;;5058376;28;20823;-70
2023/09/17 12:27:34;;;;;;;25.35;22.85;;;20.00;78.50;;;;;;5056488;28;20047;-70
2023/09/17 12:30:08;;;;;;;23.90;21.58;;;20.00;78.70;;;;;;5051596;28;20036;-70
2023/09/17 12:32:43;;;;;;;21.77;19.88;;;19.90;78.70;;;;;;5066286;28;20142;-70
2023/09/17 12:35:09;;;;;;;21.92;19.92;;;19.90;78.70;;;;;;5057645;28;20037;-70